Time;durP1;ratioP1;P1;durP2;ratioP2;P2;SDS_P1;SDS_P2;PMS_P1;PMS_P2;Temp;Humidity;BMP_temperature;BMP_pressure;BME280_temperature;BME280_humidity;BME280_pressure;Samples;Min_cycle;Max_cycle;Signal;HPM_P1;HPM_P2
2022/11/01 00:02:08;;;;;;;17.17;8.57;;;;;;;14.51;63.17;97716.28;4967674;28;20185;-75
2022/11/01 00:04:36;;;;;;;12.83;7.50;;;;;;;14.64;62.69;97723.41;4967874;28;20207;-75
2022/11/01 00:07:03;;;;;;;15.37;8.97;;;;;;;14.68;62.41;97722.31;4967854;28;20205;-75
2022/11/01 00:09:29;;;;;;;13.97;8.87;;;;;;;14.48;63.27;97719.91;4968245;28;20207;-75
2022/11/01 00:11:57;;;;;;;15.13;7.63;;;;;;;14.48;62.92;97724.25;4967764;28;20226;-75
2022/11/01 00:14:24;;;;;;;16.43;7.97;;;;;;;14.28;63.11;97720.03;4967111;28;20311;-75
2022/11/01 00:16:51;;;;;;;16.40;7.80;;;;;;;14.31;63.20;97722.50;4967660;28;20186;-75
2022/11/01 00:19:18;;;;;;;14.33;7.63;;;;;;;14.19;63.40;97725.69;4968410;28;20195;-74
2022/11/01 00:21:45;;;;;;;12.80;7.90;;;;;;;14.11;63.64;97720.00;4968076;28;20202;-76
2022/11/01 00:24:13;;;;;;;17.50;7.90;;;;;;;14.04;62.99;97712.53;4967947;28;20306;-75
2022/11/01 00:26:40;;;;;;;12.87;7.43;;;;;;;13.70;63.72;97713.34;4968098;28;20294;-75
2022/11/01 00:29:07;;;;;;;13.70;7.60;;;;;;;13.53;64.02;97715.88;4967985;28;20221;-75
2022/11/01 00:31:34;;;;;;;11.47;7.20;;;;;;;13.17;65.35;97723.59;4968110;28;20221;-75
2022/11/01 00:34:04;;;;;;;15.63;8.10;;;;;;;12.94;66.75;97715.97;4967452;28;20222;-74
2022/11/01 00:36:35;;;;;;;14.43;8.03;;;;;;;12.71;67.06;97716.97;4968109;28;20658;-75
2022/11/01 00:39:03;;;;;;;15.03;8.27;;;;;;;12.65;68.08;97713.78;4967698;28;20191;-75
2022/11/01 00:41:30;;;;;;;14.17;8.07;;;;;;;12.75;67.84;97709.88;4967788;28;20577;-75
2022/11/01 00:43:57;;;;;;;15.93;7.97;;;;;;;12.65;68.56;97714.63;4966442;28;20605;-76
2022/11/01 00:46:24;;;;;;;11.17;7.33;;;;;;;12.67;69.15;97706.78;4966241;28;20507;-75
2022/11/01 00:48:51;;;;;;;14.47;8.00;;;;;;;12.80;68.90;97706.16;4967098;28;20192;-75
2022/11/01 00:51:18;;;;;;;15.27;7.20;;;;;;;12.88;68.32;97701.47;4967341;28;20210;-76
2022/11/01 00:53:45;;;;;;;13.27;7.83;;;;;;;13.08;67.89;97704.03;4968252;28;20221;-75
2022/11/01 00:56:12;;;;;;;17.20;8.20;;;;;;;13.29;67.21;97701.41;4967644;28;20208;-75
2022/11/01 00:58:39;;;;;;;17.33;7.67;;;;;;;13.49;66.00;97709.13;4967906;28;20278;-76
2022/11/01 01:01:05;;;;;;;10.50;6.00;;;;;;;13.59;65.03;97699.97;4967833;28;20712;-77
2022/11/01 01:03:33;;;;;;;12.73;7.00;;;;;;;13.57;65.01;97705.25;4967487;28;20188;-75
2022/11/01 01:06:00;;;;;;;12.60;6.60;;;;;;;13.60;64.60;97706.88;4967816;28;20281;-75
2022/11/01 01:08:28;;;;;;;15.20;6.43;;;;;;;13.47;64.73;97710.97;4967219;28;20755;-75
2022/11/01 01:10:55;;;;;;;12.37;7.03;;;;;;;13.28;65.72;97705.75;4968176;28;20679;-75
2022/11/01 01:13:22;;;;;;;11.83;6.20;;;;;;;12.87;66.58;97705.00;4967196;28;20225;-75
2022/11/01 01:15:49;;;;;;;13.90;6.77;;;;;;;12.73;67.39;97703.91;4971090;28;21074;-75
2022/11/01 01:18:16;;;;;;;10.30;5.87;;;;;;;12.59;68.33;97708.88;4970821;28;20236;-76
2022/11/01 01:20:43;;;;;;;9.33;5.67;;;;;;;12.37;69.65;97711.50;4970798;28;20190;-75
2022/11/01 01:23:10;;;;;;;12.83;7.53;;;;;;;12.37;69.38;97706.31;4971045;28;20189;-74
2022/11/01 01:25:39;;;;;;;9.80;6.73;;;;;;;12.28;70.42;97710.16;4969171;28;20189;-75
2022/11/01 01:28:06;;;;;;;14.27;6.93;;;;;;;12.21;71.00;97716.53;4971611;28;20193;-75
2022/11/01 01:30:33;;;;;;;12.60;7.10;;;;;;;12.10;71.69;97710.06;4970359;28;20189;-75
2022/11/01 01:33:00;;;;;;;12.10;6.83;;;;;;;12.19;71.63;97710.53;4970693;28;20299;-75
2022/11/01 01:35:27;;;;;;;14.77;7.27;;;;;;;12.26;71.57;97705.94;4969245;28;20200;-75
2022/11/01 01:37:54;;;;;;;15.93;7.73;;;;;;;12.30;71.26;97712.69;4969273;28;20195;-75
2022/11/01 01:40:21;;;;;;;14.80;6.93;;;;;;;12.09;71.89;97704.06;4969303;28;20309;-75
2022/11/01 01:42:48;;;;;;;10.53;7.30;;;;;;;12.03;72.44;97713.84;4970187;28;20194;-75
2022/11/01 01:45:27;;;;;;;12.97;8.43;;;;;;;11.85;73.29;97715.41;4970851;28;20195;-75
2022/11/01 01:48:01;;;;;;;15.10;8.70;;;;;;;11.78;73.62;97703.59;4970104;28;20228;-76
2022/11/01 01:50:34;;;;;;;11.83;7.20;;;;;;;11.95;73.61;97716.72;4970350;28;20280;-75
2022/11/01 01:53:13;;;;;;;14.93;7.23;;;;;;;12.06;73.22;97708.50;4970156;28;20228;-76
2022/11/01 01:55:49;;;;;;;12.60;7.07;;;;;;;12.10;73.33;97720.44;4968910;28;20675;-75
2022/11/01 01:58:20;;;;;;;16.20;7.47;;;;;;;12.25;72.43;97717.22;4970423;28;20192;-75
2022/11/01 02:00:48;;;;;;;9.50;6.60;;;;;;;12.34;71.87;97711.66;4969683;28;20196;-75
2022/11/01 02:03:15;;;;;;;11.73;7.33;;;;;;;12.36;71.62;97704.66;4970269;28;20184;-75
2022/11/01 02:05:50;;;;;;;12.20;7.03;;;;;;;12.70;70.46;97707.47;4969999;28;20657;-76
2022/11/01 02:08:26;;;;;;;11.13;6.97;;;;;;;12.92;69.69;97710.81;4968677;28;20190;-75
2022/11/01 02:10:56;;;;;;;9.93;6.57;;;;;;;12.82;68.92;97693.09;4968826;28;20221;-75
2022/11/01 02:13:23;;;;;;;11.87;6.87;;;;;;;12.91;69.35;97705.69;4969630;28;20434;-75
2022/11/01 02:15:56;;;;;;;12.77;6.83;;;;;;;13.06;68.35;97713.66;4970365;28;20188;-75
2022/11/01 02:19:02;;;;;;;10.47;6.33;;;;;;;13.05;68.25;97724.16;4968795;28;20238;-76
2022/11/01 02:21:49;;;;;;;40.10;6.93;;;;;;;13.06;67.97;97716.28;4969735;28;20838;-76
2022/11/01 02:24:19;;;;;;;11.33;7.07;;;;;;;13.20;67.99;97720.88;4968970;28;20198;-76
2022/11/01 02:26:55;;;;;;;12.50;6.80;;;;;;;13.20;67.68;97722.63;4968614;28;20200;-76
2022/11/01 02:29:59;;;;;;;10.83;6.60;;;;;;;13.12;66.89;97722.97;4969810;28;20702;-76
2022/11/01 02:32:48;;;;;;;11.70;7.60;;;;;;;13.13;66.67;97736.84;4969900;28;20199;-76
2022/11/01 02:35:27;;;;;;;9.90;6.47;;;;;;;13.11;66.61;97728.25;4969147;28;20232;-76
2022/11/01 02:37:54;;;;;;;13.23;7.83;;;;;;;12.66;67.78;97729.31;4969850;28;20197;-76
2022/11/01 02:40:51;;;;;;;16.37;7.10;;;;;;;12.33;68.83;97727.28;4969347;28;20197;-75
2022/11/01 02:43:22;;;;;;;8.70;6.27;;;;;;;12.00;70.27;97729.50;4969177;28;20184;-75
2022/11/01 02:45:50;;;;;;;13.43;6.40;;;;;;;11.77;70.61;97722.66;4969762;28;20197;-75
2022/11/01 02:48:19;;;;;;;11.40;6.30;;;;;;;11.55;72.00;97728.69;4969024;28;20196;-76
2022/11/01 02:50:55;;;;;;;13.33;6.37;;;;;;;11.48;72.53;97732.44;4969321;28;20674;-76
2022/11/01 02:53:22;;;;;;;10.30;5.70;;;;;;;11.54;72.48;97734.81;4969124;28;20220;-77
2022/11/01 02:55:53;;;;;;;12.43;6.23;;;;;;;11.78;72.00;97733.88;4951849;28;20184;-76
2022/11/01 02:58:26;;;;;;;9.37;5.17;;;;;;;11.90;71.33;97726.47;4969267;28;20406;-75
2022/11/01 03:00:55;;;;;;;13.13;5.60;;;;;;;12.07;71.23;97728.38;4968713;28;20192;-75
2022/11/01 03:03:33;;;;;;;8.90;4.97;;;;;;;12.10;70.97;97731.69;4967674;28;20192;-75
2022/11/01 03:05:59;;;;;;;8.57;5.53;;;;;;;11.96;70.95;97728.81;4967471;28;20976;-76
2022/11/01 03:08:33;;;;;;;10.70;5.20;;;;;;;12.05;71.63;97735.38;4967753;28;20280;-75
2022/11/01 03:11:11;;;;;;;9.47;5.27;;;;;;;12.20;71.22;97737.34;4968822;28;20272;-76
2022/11/01 03:13:56;;;;;;;12.93;5.37;;;;;;;12.27;70.97;97737.03;4968572;28;20241;-77
2022/11/01 03:16:41;;;;;;;9.03;5.07;;;;;;;12.19;70.68;97738.25;4969111;28;20240;-75
2022/11/01 03:19:48;;;;;;;8.30;5.33;;;;;;;12.10;70.67;97736.03;4968553;28;20193;-75
2022/11/01 03:22:42;;;;;;;12.40;5.97;;;;;;;11.89;72.12;97742.91;4968409;28;20285;-75
2022/11/01 03:25:41;;;;;;;14.90;5.90;;;;;;;11.90;72.59;97739.44;4968971;28;20280;-76
2022/11/01 03:28:23;;;;;;;10.50;5.60;;;;;;;11.93;71.75;97739.28;4967232;28;20206;-76
2022/11/01 03:30:55;;;;;;;8.20;5.13;;;;;;;12.15;71.13;97737.53;4968404;28;20752;-76
2022/11/01 03:33:24;;;;;;;9.97;5.40;;;;;;;12.25;70.86;97740.59;4968720;28;20222;-76
2022/11/01 03:35:56;;;;;;;10.03;5.40;;;;;;;12.36;70.71;97738.41;4968227;28;20677;-76
2022/11/01 03:38:27;;;;;;;9.77;6.03;;;;;;;12.46;70.13;97734.53;4968589;28;20587;-76
2022/11/01 03:40:59;;;;;;;8.63;5.57;;;;;;;12.51;69.90;97742.94;4968288;28;20279;-76
2022/11/01 03:43:29;;;;;;;10.03;6.20;;;;;;;12.48;69.90;97740.50;4968407;28;20195;-75
2022/11/01 03:45:57;;;;;;;9.50;6.23;;;;;;;12.54;69.70;97750.63;4968582;28;20191;-77
2022/11/01 03:48:24;;;;;;;13.87;6.60;;;;;;;12.60;69.50;97754.72;4968071;28;20626;-77
2022/11/01 03:50:55;;;;;;;14.73;8.07;;;;;;;12.46;68.82;97738.88;4968578;28;20570;-76
2022/11/01 03:53:22;;;;;;;14.00;7.80;;;;;;;12.20;69.95;97747.72;4967904;28;20267;-75
2022/11/01 03:55:49;;;;;;;12.77;7.17;;;;;;;12.07;70.31;97746.53;4968337;28;20192;-75
2022/11/01 03:58:16;;;;;;;14.30;7.97;;;;;;;12.01;70.84;97755.41;4968072;28;20479;-76
2022/11/01 04:00:45;;;;;;;14.07;7.83;;;;;;;11.91;70.46;97754.09;4966774;28;20614;-76
2022/11/01 04:03:12;;;;;;;12.70;8.00;;;;;;;11.73;70.80;97738.38;4968065;28;20207;-76
2022/11/01 04:05:40;;;;;;;13.53;8.97;;;;;;;11.61;70.97;97746.63;4966621;28;20190;-76
2022/11/01 04:08:10;;;;;;;11.67;8.73;;;;;;;11.30;72.12;97737.41;4968369;28;20195;-76
2022/11/01 04:10:37;;;;;;;15.90;9.27;;;;;;;11.32;72.66;97740.81;4967791;28;20198;-76
2022/11/01 04:13:04;;;;;;;12.90;8.17;;;;;;;11.21;73.42;97735.16;4968225;28;20213;-76
2022/11/01 04:21:12;;;;;;;11.63;6.80;;;;;;;11.60;72.30;97742.34;4968169;28;20691;-76
2022/11/01 04:23:40;;;;;;;8.10;5.97;;;;;;;11.27;73.44;97747.91;4967543;28;20202;-76
2022/11/01 04:26:14;;;;;;;8.07;5.53;;;;;;;11.09;74.29;97751.16;4968156;28;20651;-76
2022/11/01 04:28:43;;;;;;;12.20;7.17;;;;;;;10.98;74.96;97737.78;4966576;28;20729;-76
2022/11/01 04:31:11;;;;;;;9.63;5.77;;;;;;;10.95;75.83;97749.97;4967831;28;20204;-76
2022/11/01 04:33:37;;;;;;;7.53;5.70;;;;;;;10.94;75.79;97733.56;4950613;28;20224;-76
2022/11/01 04:36:05;;;;;;;7.77;5.43;;;;;;;10.94;75.81;97743.94;4967659;28;20785;-76
2022/11/01 04:38:32;;;;;;;12.17;6.03;;;;;;;10.95;76.54;97742.19;4967001;28;20189;-76
2022/11/01 04:40:59;;;;;;;7.17;5.70;;;;;;;10.83;76.57;97750.41;4966128;28;20223;-76
2022/11/01 04:43:26;;;;;;;10.97;5.37;;;;;;;10.85;76.40;97748.63;4968134;28;20188;-76
2022/11/01 04:45:54;;;;;;;9.17;5.43;;;;;;;10.90;76.47;97754.50;4966501;28;20185;-77
2022/11/01 04:48:23;;;;;;;8.90;5.43;;;;;;;10.93;76.31;97752.63;4968239;28;20202;-76
2022/11/01 04:50:50;;;;;;;10.30;5.10;;;;;;;11.05;76.01;97747.00;4971703;28;20668;-75
2022/11/01 04:53:17;;;;;;;9.90;5.50;;;;;;;11.19;74.79;97752.53;4971264;28;20189;-76
2022/11/01 04:55:44;;;;;;;7.60;5.00;;;;;;;11.42;74.01;97757.69;4971972;28;20615;-75
2022/11/01 04:58:11;;;;;;;10.23;5.37;;;;;;;11.55;73.75;97757.22;4971124;28;20233;-76
2022/11/01 05:00:38;;;;;;;8.90;5.33;;;;;;;11.43;74.04;97751.63;4970822;28;20200;-75
2022/11/01 05:03:06;;;;;;;8.07;5.37;;;;;;;11.34;74.22;97759.75;4970923;28;20203;-76
2022/11/01 05:05:34;;;;;;;9.23;5.53;;;;;;;11.47;74.01;97754.94;4970920;28;20655;-75
2022/11/01 05:08:01;;;;;;;11.07;6.27;;;;;;;11.55;73.82;97763.28;4971107;28;20208;-75
2022/11/01 05:10:35;;;;;;;14.23;5.63;;;;;;;11.58;73.75;97764.91;4970991;28;20275;-76
2022/11/01 05:13:03;;;;;;;8.93;5.63;;;;;;;11.70;73.54;97752.34;4971457;28;20191;-76
2022/11/01 05:15:30;;;;;;;8.70;5.33;;;;;;;11.72;72.76;97740.16;4970417;28;20229;-76
2022/11/01 05:17:57;;;;;;;11.07;5.10;;;;;;;12.05;72.38;97769.13;4970958;28;20721;-75
2022/11/01 05:20:24;;;;;;;11.53;5.37;;;;;;;12.18;70.72;97762.50;4970672;28;20192;-75
2022/11/01 05:22:51;;;;;;;11.20;5.87;;;;;;;12.26;70.43;97765.69;4970643;28;20200;-75
2022/11/01 05:25:18;;;;;;;11.13;6.23;;;;;;;12.48;69.51;97766.47;4970682;28;20279;-75
2022/11/01 05:27:45;;;;;;;14.97;7.83;;;;;;;12.61;68.87;97775.44;4968986;28;20231;-75
2022/11/01 05:30:12;;;;;;;16.83;7.20;;;;;;;12.67;68.11;97784.75;4970780;28;20191;-76
2022/11/01 05:32:39;;;;;;;16.50;6.67;;;;;;;12.70;67.81;97780.25;4970221;28;20282;-76
2022/11/01 05:35:06;;;;;;;10.20;6.07;;;;;;;12.75;67.13;97782.66;4970958;28;20226;-76
2022/11/01 05:37:34;;;;;;;12.13;7.43;;;;;;;12.78;67.70;97778.16;4970365;28;20284;-76
2022/11/01 05:40:02;;;;;;;17.43;8.77;;;;;;;12.78;67.39;97787.72;4970378;28;20189;-75
2022/11/01 05:42:29;;;;;;;16.40;8.17;;;;;;;12.91;67.67;97789.75;4970244;28;20182;-74
2022/11/01 05:44:56;;;;;;;11.33;7.37;;;;;;;12.90;65.91;97785.44;4968816;28;20203;-77
2022/11/01 05:47:23;;;;;;;11.10;6.23;;;;;;;12.66;66.15;97778.69;4970558;28;20196;-74
2022/11/01 05:49:50;;;;;;;7.77;5.53;;;;;;;12.42;67.73;97782.31;4968469;28;20190;-74
2022/11/01 05:52:17;;;;;;;15.43;6.50;;;;;;;12.36;68.79;97786.91;4970525;28;20698;-75
2022/11/01 05:54:44;;;;;;;17.57;6.60;;;;;;;12.07;70.08;97783.75;4968511;28;20278;-75
2022/11/01 05:57:11;;;;;;;12.93;6.30;;;;;;;12.18;69.29;97791.09;4970130;28;20293;-75
2022/11/01 05:59:38;;;;;;;11.30;5.70;;;;;;;12.05;70.34;97795.94;4952149;28;20201;-75
2022/11/01 06:02:05;;;;;;;8.63;5.87;;;;;;;12.13;70.21;97787.84;4968639;28;20191;-76
2022/11/01 06:04:32;;;;;;;12.67;5.33;;;;;;;12.13;71.12;97796.47;4968705;28;20198;-76
2022/11/01 06:06:59;;;;;;;12.77;5.63;;;;;;;12.19;70.44;97803.16;4968180;28;20576;-76
2022/11/01 06:09:26;;;;;;;8.87;5.57;;;;;;;12.15;70.87;97806.81;4970044;28;20233;-76
2022/11/01 06:11:53;;;;;;;9.93;5.17;;;;;;;12.06;71.92;97808.00;4968141;28;20185;-76
2022/11/01 06:14:19;;;;;;;9.93;5.53;;;;;;;11.99;71.43;97792.75;4969460;28;20220;-76
2022/11/01 06:16:47;;;;;;;11.60;4.73;;;;;;;12.06;71.77;97804.56;4969161;28;20197;-76
2022/11/01 06:19:13;;;;;;;9.43;5.17;;;;;;;12.23;71.74;97809.94;4969385;28;20271;-76
2022/11/01 06:21:40;;;;;;;10.03;5.07;;;;;;;12.47;70.72;97810.72;4967851;28;20260;-77
2022/11/01 06:24:09;;;;;;;9.13;5.10;;;;;;;12.50;71.45;97813.16;4967747;28;20599;-76
2022/11/01 06:26:36;;;;;;;9.07;5.63;;;;;;;12.67;70.34;97810.72;4969557;28;20274;-76
2022/11/01 06:29:04;;;;;;;8.30;5.10;;;;;;;12.78;69.93;97819.75;4969024;28;20199;-76
2022/11/01 06:31:31;;;;;;;9.90;5.90;;;;;;;12.82;70.33;97815.25;4969190;28;20669;-76
2022/11/01 06:33:58;;;;;;;13.83;5.17;;;;;;;12.92;70.22;97809.59;4969191;28;20194;-75
2022/11/01 06:36:25;;;;;;;27.77;6.23;;;;;;;13.14;69.23;97803.53;4967943;28;20232;-76
2022/11/01 06:38:52;;;;;;;10.50;5.70;;;;;;;13.31;68.76;97808.84;4969018;28;20223;-76
2022/11/01 06:41:19;;;;;;;9.73;5.10;;;;;;;12.72;68.41;97713.47;4969282;28;20202;-76
2022/11/01 06:43:49;;;;;;;11.90;5.50;;;;;;;13.36;69.00;97812.91;4967854;28;20206;-76
2022/11/01 06:46:16;;;;;;;14.40;5.83;;;;;;;13.47;68.72;97817.66;4966893;28;20700;-75
2022/11/01 06:48:46;;;;;;;6.83;4.67;;;;;;;13.62;68.18;97809.97;4969025;28;20189;-76
2022/11/01 06:51:13;;;;;;;10.43;4.63;;;;;;;13.97;66.88;97817.94;4968326;28;20187;-76
2022/11/01 06:53:40;;;;;;;12.37;4.87;;;;;;;14.03;66.70;97813.28;4968918;28;20227;-75
2022/11/01 06:56:07;;;;;;;10.40;5.20;;;;;;;14.09;66.00;97815.59;4968566;28;20226;-76
2022/11/01 06:58:34;;;;;;;11.83;5.60;;;;;;;14.26;65.67;97822.63;4968815;28;20261;-75
2022/11/01 07:01:01;;;;;;;11.40;5.10;;;;;;;14.44;65.32;97820.00;4968841;28;20195;-75
2022/11/01 07:03:28;;;;;;;14.00;5.23;;;;;;;14.55;65.04;97819.44;4968332;28;20195;-76
2022/11/01 07:05:58;;;;;;;16.37;5.20;;;;;;;14.71;64.19;97820.41;4968980;28;20185;-75
2022/11/01 07:08:26;;;;;;;18.20;5.53;;;;;;;14.54;64.14;97813.41;4966824;28;20202;-75
2022/11/01 07:10:53;;;;;;;15.10;6.03;;;;;;;14.76;64.37;97812.34;4968007;28;20199;-75
2022/11/01 07:13:20;;;;;;;10.07;5.77;;;;;;;14.88;63.90;97811.75;4965673;28;20583;-76
2022/11/01 07:15:47;;;;;;;12.10;6.73;;;;;;;14.99;63.21;97809.41;4967643;28;20615;-75
2022/11/01 07:18:14;;;;;;;12.50;6.10;;;;;;;15.18;62.80;97808.41;4967786;28;20220;-74
2022/11/01 07:20:41;;;;;;;12.47;6.47;;;;;;;15.32;62.33;97792.88;4967511;28;20193;-75
2022/11/01 07:23:14;;;;;;;14.57;7.00;;;;;;;15.50;62.27;97806.75;4965706;28;20189;-75
2022/11/01 07:25:41;;;;;;;13.73;7.77;;;;;;;15.61;62.00;97809.63;4966025;28;20280;-75
2022/11/01 07:28:09;;;;;;;20.43;7.77;;;;;;;15.66;61.73;97802.38;4967863;28;20189;-75
2022/11/01 07:30:35;;;;;;;18.20;8.30;;;;;;;15.84;61.16;97806.63;4966456;28;20193;-75
2022/11/01 07:33:03;;;;;;;13.07;6.57;;;;;;;16.05;60.98;97800.19;4966447;28;20763;-75
2022/11/01 07:35:31;;;;;;;16.03;6.60;;;;;;;16.26;59.97;97811.22;4967563;28;20216;-76
2022/11/01 07:37:59;;;;;;;17.90;6.77;;;;;;;16.30;59.88;97810.13;4967309;28;20227;-76
2022/11/01 07:40:31;;;;;;;22.37;6.20;;;;;;;16.48;59.37;97801.28;4968153;28;20264;-76
2022/11/01 07:42:59;;;;;;;13.97;6.47;;;;;;;16.53;59.36;97807.09;4965764;28;20276;-76
2022/11/01 07:45:28;;;;;;;11.27;6.07;;;;;;;16.65;58.96;97805.56;4967601;28;20277;-74
2022/11/01 07:48:01;;;;;;;16.23;6.53;;;;;;;16.65;58.96;97802.94;4967162;28;20184;-75
2022/11/01 07:50:30;;;;;;;14.07;7.50;;;;;;;16.78;58.64;97809.13;4949957;28;20211;-76
2022/11/01 07:53:05;;;;;;;19.60;7.20;;;;;;;16.78;58.52;97793.44;4967344;28;20208;-75
2022/11/01 07:55:33;;;;;;;9.77;5.53;;;;;;;17.01;58.44;97806.03;4966796;28;20660;-76
2022/11/01 07:58:01;;;;;;;12.10;6.20;;;;;;;17.19;57.57;97798.88;4965657;28;20200;-75
2022/11/01 08:00:30;;;;;;;9.40;4.70;;;;;;;17.20;57.19;97797.91;4965157;28;20220;-75
2022/11/01 08:03:09;;;;;;;9.43;5.30;;;;;;;17.28;57.32;97790.44;4967127;28;20194;-76
2022/11/01 08:05:37;;;;;;;9.63;5.00;;;;;;;17.45;56.60;97804.22;4965668;28;20205;-77
2022/11/01 08:08:05;;;;;;;12.63;5.40;;;;;;;17.61;56.20;97796.28;4965635;28;20205;-76
2022/11/01 08:10:33;;;;;;;13.27;5.73;;;;;;;17.78;56.56;97791.66;4967412;28;20197;-77
2022/11/01 08:13:01;;;;;;;10.90;5.10;;;;;;;17.98;55.44;97797.44;4966778;28;20193;-78
2022/11/01 08:15:28;;;;;;;11.13;5.63;;;;;;;17.77;55.37;97749.84;4966875;28;20232;-76
2022/11/01 08:17:56;;;;;;;14.63;4.80;;;;;;;18.19;54.21;97793.47;4965866;28;20228;-76
2022/11/01 08:20:26;;;;;;;14.50;5.80;;;;;;;18.33;54.06;97790.78;4964740;28;20198;-77
2022/11/01 08:22:53;;;;;;;10.83;5.47;;;;;;;18.38;53.81;97783.47;4965016;28;20557;-76
2022/11/01 08:26:02;;;;;;;10.50;4.70;;;;;;;18.51;53.23;97771.25;4969805;28;20187;-76
2022/11/01 08:29:23;;;;;;;9.10;3.83;;;;;;;18.61;52.83;97777.56;4969700;28;20611;-77
2022/11/01 08:32:44;;;;;;;15.77;5.07;;;;;;;18.74;52.73;97778.44;4964217;28;20212;-78
2022/11/01 08:36:04;;;;;;;13.80;5.10;;;;;;;18.73;52.52;97747.91;4955337;28;20218;-78
2022/11/01 08:39:05;;;;;;;13.43;5.60;;;;;;;18.88;51.84;97764.38;4970328;28;20280;-78
2022/11/01 08:41:32;;;;;;;13.67;4.93;;;;;;;18.99;51.67;97767.16;4970977;28;20284;-77
2022/11/01 08:44:03;;;;;;;13.57;5.97;;;;;;;19.11;51.44;97767.16;4953365;28;20209;-76
2022/11/01 08:46:30;;;;;;;14.63;6.13;;;;;;;19.23;51.08;97770.72;4970378;28;20454;-76
2022/11/01 08:48:59;;;;;;;17.03;6.03;;;;;;;19.33;50.87;97766.53;4970500;28;20191;-77
2022/11/01 08:51:26;;;;;;;14.63;5.80;;;;;;;19.41;51.07;97769.50;4969904;28;20515;-77
2022/11/01 08:53:55;;;;;;;12.83;6.30;;;;;;;19.53;50.91;97763.38;4970788;28;20294;-77
2022/11/01 08:56:23;;;;;;;21.20;6.97;;;;;;;19.71;50.60;97762.09;4968751;28;20227;-76
2022/11/01 08:58:51;;;;;;;10.67;5.57;;;;;;;19.74;49.98;97768.91;4969176;28;20746;-75
2022/11/01 09:01:20;;;;;;;13.80;5.43;;;;;;;19.87;49.63;97761.81;4968726;28;20200;-76
2022/11/01 09:03:47;;;;;;;10.90;5.50;;;;;;;19.77;49.42;97750.28;4968904;28;20345;-75
2022/11/01 09:06:14;;;;;;;12.20;7.70;;;;;;;19.89;49.53;97750.25;4969979;28;20224;-75
2022/11/01 09:08:41;;;;;;;15.03;6.10;;;;;;;20.08;49.40;97755.03;4970098;28;20188;-76
2022/11/01 09:11:08;;;;;;;12.00;5.43;;;;;;;20.05;49.11;97752.66;4952812;28;20193;-76
2022/11/01 09:13:35;;;;;;;11.30;5.77;;;;;;;20.12;48.82;97751.22;4969578;28;20184;-76
2022/11/01 09:16:06;;;;;;;10.07;6.07;;;;;;;20.27;48.90;97747.53;4970326;28;20225;-77
2022/11/01 09:18:33;;;;;;;11.23;4.97;;;;;;;20.41;48.17;97752.59;4969850;28;20224;-76
2022/11/01 09:21:01;;;;;;;7.53;4.70;;;;;;;20.49;47.76;97752.88;4952312;28;20341;-76
2022/11/01 09:23:28;;;;;;;9.93;4.50;;;;;;;20.49;47.57;97744.97;4969737;28;20291;-76
2022/11/01 09:26:02;;;;;;;8.87;4.10;;;;;;;20.56;47.09;97754.13;4968119;28;20886;-76
2022/11/01 09:28:30;;;;;;;6.87;4.43;;;;;;;20.68;47.29;97745.28;4952694;28;20205;-76
2022/11/01 09:31:04;;;;;;;7.67;4.10;;;;;;;20.71;47.13;97746.88;4969385;28;20203;-75
2022/11/01 09:33:46;;;;;;;8.50;5.00;;;;;;;20.66;47.04;97731.41;4969607;28;20635;-76
2022/11/01 09:36:13;;;;;;;16.47;7.57;;;;;;;20.70;47.09;97732.84;4969335;28;20229;-77
2022/11/01 09:38:40;;;;;;;7.47;4.23;;;;;;;20.80;46.82;97723.31;4969484;28;20670;-77
2022/11/01 09:41:14;;;;;;;10.40;4.97;;;;;;;20.75;47.12;97725.44;4968399;28;20188;-77
2022/11/01 09:43:43;;;;;;;9.43;4.33;;;;;;;20.70;46.87;97726.75;4969399;28;20291;-76
2022/11/01 09:46:15;;;;;;;10.37;3.87;;;;;;;20.74;46.78;97726.41;4969462;28;20618;-75
2022/11/01 09:48:44;;;;;;;11.47;4.10;;;;;;;20.59;47.22;97730.19;4968553;28;20224;-76
2022/11/01 09:51:19;;;;;;;6.57;3.67;;;;;;;20.57;47.32;97731.25;4969548;28;20680;-76
2022/11/01 09:53:48;;;;;;;7.00;4.20;;;;;;;20.60;47.34;97723.97;4967731;28;20625;-76
2022/11/01 09:56:30;;;;;;;8.63;3.90;;;;;;;20.82;46.78;97725.81;4967722;28;20683;-76
2022/11/01 09:59:06;;;;;;;9.73;4.50;;;;;;;20.93;46.55;97717.94;4969806;28;20193;-76
2022/11/01 10:01:54;;;;;;;13.40;4.90;;;;;;;21.03;46.27;97719.78;4969024;28;20188;-76
2022/11/01 10:04:46;;;;;;;7.40;4.40;;;;;;;20.95;46.65;97708.97;4968957;28;20189;-76
2022/11/01 10:07:25;;;;;;;8.87;4.23;;;;;;;21.29;45.60;97701.97;4968653;28;20195;-75
2022/11/01 10:10:17;;;;;;;6.17;4.00;;;;;;;21.30;45.38;97695.75;4968533;28;20291;-76
2022/11/01 10:12:47;;;;;;;5.47;3.47;;;;;;;21.32;45.27;97708.78;4951405;28;20566;-76
2022/11/01 10:15:31;;;;;;;6.27;4.07;;;;;;;21.41;44.91;97694.91;4951370;28;20609;-75
2022/11/01 10:18:14;;;;;;;8.73;3.70;;;;;;;21.63;44.86;97697.50;4968872;28;20231;-76
2022/11/01 10:20:41;;;;;;;6.27;3.40;;;;;;;21.54;44.72;97692.97;4967962;28;20684;-76
2022/11/01 10:23:15;;;;;;;11.20;3.83;;;;;;;21.51;44.61;97693.22;4969016;28;20267;-75
2022/11/01 10:25:50;;;;;;;6.37;3.53;;;;;;;21.67;44.19;97694.50;4968633;28;20555;-76
2022/11/01 10:28:41;;;;;;;9.30;3.67;;;;;;;21.64;44.55;97696.53;4967374;28;20695;-76
2022/11/01 10:31:14;;;;;;;8.07;3.93;;;;;;;21.75;44.12;97678.06;4966802;28;20265;-76
2022/11/01 10:33:59;;;;;;;8.17;3.57;;;;;;;21.78;44.02;97681.28;4968937;28;20689;-77
2022/11/01 10:36:33;;;;;;;7.17;3.83;;;;;;;22.03;43.50;97680.16;4968193;28;20217;-77
2022/11/01 10:39:18;;;;;;;6.63;3.90;;;;;;;21.95;43.64;97682.59;4967231;28;20195;-77
2022/11/01 10:42:14;;;;;;;8.43;3.43;;;;;;;22.07;43.25;97675.50;4966923;28;20201;-76
2022/11/01 10:44:54;;;;;;;7.23;3.50;;;;;;;22.11;42.61;97669.00;4966398;28;20670;-75
2022/11/01 10:47:23;;;;;;;8.00;3.60;;;;;;;22.29;42.25;97665.69;4966956;28;20209;-75
2022/11/01 10:49:53;;;;;;;9.93;3.60;;;;;;;22.39;42.21;97661.31;4966371;28;20269;-75
2022/11/01 10:52:48;;;;;;;6.03;3.70;;;;;;;22.38;42.35;97659.63;4968128;28;20201;-76
2022/11/01 10:55:41;;;;;;;12.00;3.90;;;;;;;22.41;42.57;97661.19;4968574;28;20288;-77
2022/11/01 10:58:14;;;;;;;8.77;3.47;;;;;;;22.54;42.00;97654.78;4968456;28;20666;-76
2022/11/01 11:00:41;;;;;;;11.33;3.97;;;;;;;22.37;41.84;97636.00;4966714;28;20205;-77
2022/11/01 11:03:25;;;;;;;9.53;4.20;;;;;;;22.57;41.87;97646.56;4967987;28;20187;-76
2022/11/01 11:06:05;;;;;;;13.43;5.00;;;;;;;22.64;41.86;97639.88;4966434;28;20344;-77
2022/11/01 11:08:32;;;;;;;14.10;5.37;;;;;;;22.67;41.88;97648.50;4968667;28;20213;-77
2022/11/01 11:11:06;;;;;;;8.87;3.73;;;;;;;22.73;41.59;97632.13;4967638;28;20192;-77
2022/11/01 11:13:34;;;;;;;8.40;4.00;;;;;;;22.81;41.36;97627.03;4967680;28;20666;-77
2022/11/01 11:16:04;;;;;;;14.77;5.13;;;;;;;22.94;40.95;97635.53;4967828;28;20676;-76
2022/11/01 11:18:32;;;;;;;11.47;4.70;;;;;;;;;;4966017;28;20221;-77
2022/11/01 11:21:07;;;;;;;10.20;4.10;;;;;;;23.02;40.25;97625.19;4967765;28;20223;-77
2022/11/01 11:23:41;;;;;;;10.40;5.37;;;;;;;23.17;40.82;97626.47;4966971;28;20191;-76
2022/11/01 11:26:15;;;;;;;14.30;5.00;;;;;;;23.17;40.26;97618.53;4968051;28;20198;-77
2022/11/01 11:28:50;;;;;;;14.80;5.27;;;;;;;23.13;40.32;97620.63;4967672;28;20191;-77
2022/11/01 11:31:43;;;;;;;14.43;5.73;;;;;;;22.99;40.83;97610.44;4950427;28;20286;-77
2022/11/01 11:34:15;;;;;;;9.00;4.63;;;;;;;23.13;40.72;97612.69;4970268;28;20958;-74
2022/11/01 11:36:48;;;;;;;14.03;4.83;;;;;;;23.16;40.47;97604.50;4967572;28;20227;-76
2022/11/01 11:39:57;;;;;;;11.77;4.90;;;;;;;23.33;40.24;97606.53;4967858;28;20188;-77
2022/11/01 11:42:25;;;;;;;13.80;4.90;;;;;;;23.36;39.90;97601.00;4967657;28;20667;-76
2022/11/01 11:44:54;;;;;;;12.20;4.40;;;;;;;23.32;39.84;97588.16;4967540;28;20188;-77
2022/11/01 11:47:24;;;;;;;10.40;4.37;;;;;;;23.48;39.52;97603.50;4968257;28;20188;-76
2022/11/01 11:49:57;;;;;;;13.70;5.57;;;;;;;23.52;38.99;97599.59;4966254;28;20197;-76
2022/11/01 11:52:34;;;;;;;7.67;4.43;;;;;;;23.51;39.58;97603.25;4966104;28;20195;-75
2022/11/01 11:55:24;;;;;;;10.67;4.40;;;;;;;23.55;38.92;97594.91;4965840;28;20638;-75
2022/11/01 11:57:54;;;;;;;11.30;4.50;;;;;;;23.59;38.86;97593.66;4966642;28;20190;-75